Accueil
METAR-TAF:

METAR-TAF

Aéroports :

Vernal Regional Airport

Vernal, Utah, États-Unis

latitude: 40-26-39N, longitude: 109-30-42W, altitude: 1607 m

Observation

Le bulletin a été fait il y a 1 heure et 5 minutes, à 10:53 UTC
Vent 5 kt de sud-ouest
Température 14°C
Humidité 41%
Pression 1016 hPa
Visibilité: 16.1 km
Ciel clair

METAR: KVEL 231053Z AUTO 23005KT 10SM CLR 14/01 A2999 RMK AO2 SLP079 T01440006

Heure: 05:58 (11:58 UTC)

Prévision

Le bulletin a été fait il y a 19 minutes, à 11:39 UTC
Prévision valable du 23 à 12 UTC au 24 à 12 UTC
Vent 6 kt de ouest
Visibilité: 10 km
Quelques nuages à une hauteur de 20000 ft
Nuages épars à une hauteur de 25000 ft
A partir de 24 à 0200 UTC
Vent 11 kt de ouest
Visibilité: 10 km
Quelques nuages à une hauteur de 15000 ft
Nuages épars à une hauteur de 20000 ft

TAF: KVEL 231139Z 2312/2412 28006KT P6SM FEW200 SCT250 FM240200 28011KT P6SM FEW150 SCT200

Observations et prévisions météorologiques de plus de 4000 aéroports (messages METAR et TAF).

Les stations disponibles sont représentées par des disques jaunes et rouges sur la carte.

Passer la souris dessus pour voir le nom de la station.

Cliquer dessus pour voir les observations et prévisions météorologiques.

Pour changer de carte: cliquez sur les boutons verts avec une croix noire pour zoomer, sur le bouton vert avec un tiret pour effectuer un zoom arrière, ou sur les flèches vertes pour les cartes adjacentes.


METAR-TAF: